sensor_id;sensor_type;location;lat;lon;timestamp;pressure;altitude;pressure_sealevel;temperature;humidity
77240;BME280;66258;53.170;-2.240;2023-03-01T00:01:40;102305.78;;;14.38;89.16
77240;BME280;66258;53.170;-2.240;2023-03-01T00:04:07;102300.78;;;14.43;89.24
77240;BME280;66258;53.170;-2.240;2023-03-01T00:06:35;102305.06;;;14.56;88.55
77240;BME280;66258;53.170;-2.240;2023-03-01T00:09:05;102310.25;;;14.59;88.19
77240;BME280;66258;53.170;-2.240;2023-03-01T00:11:33;102309.53;;;14.47;88.52
77240;BME280;66258;53.170;-2.240;2023-03-01T00:14:02;102314.84;;;14.49;87.89
77240;BME280;66258;53.170;-2.240;2023-03-01T00:16:32;102313.13;;;14.48;87.63
77240;BME280;66258;53.170;-2.240;2023-03-01T00:18:59;102304.19;;;14.36;88.36
77240;BME280;66258;53.170;-2.240;2023-03-01T00:21:27;102312.56;;;14.44;88.01
77240;BME280;66258;53.170;-2.240;2023-03-01T00:23:54;102308.09;;;14.43;87.90
77240;BME280;66258;53.170;-2.240;2023-03-01T00:26:23;102314.09;;;14.37;87.61
77240;BME280;66258;53.170;-2.240;2023-03-01T00:28:51;102314.53;;;14.32;87.21
77240;BME280;66258;53.170;-2.240;2023-03-01T00:31:21;102318.81;;;14.06;87.88
77240;BME280;66258;53.170;-2.240;2023-03-01T00:33:48;102305.16;;;13.96;88.24
77240;BME280;66258;53.170;-2.240;2023-03-01T00:36:16;102302.25;;;13.79;87.72
77240;BME280;66258;53.170;-2.240;2023-03-01T00:38:44;102306.16;;;13.86;87.77
77240;BME280;66258;53.170;-2.240;2023-03-01T00:41:13;102291.28;;;13.90;87.23
77240;BME280;66258;53.170;-2.240;2023-03-01T00:43:40;102291.53;;;13.87;86.46
77240;BME280;66258;53.170;-2.240;2023-03-01T00:46:10;102295.72;;;13.91;86.13
77240;BME280;66258;53.170;-2.240;2023-03-01T00:48:38;102296.44;;;14.02;85.02
77240;BME280;66258;53.170;-2.240;2023-03-01T00:51:08;102296.84;;;13.98;83.73
77240;BME280;66258;53.170;-2.240;2023-03-01T00:53:36;102298.88;;;14.15;82.54
77240;BME280;66258;53.170;-2.240;2023-03-01T00:56:06;102296.72;;;13.90;82.28
77240;BME280;66258;53.170;-2.240;2023-03-01T00:58:34;102297.28;;;14.03;81.22
77240;BME280;66258;53.170;-2.240;2023-03-01T01:01:07;102301.31;;;14.08;81.97
77240;BME280;66258;53.170;-2.240;2023-03-01T01:03:34;102301.75;;;14.04;82.02
77240;BME280;66258;53.170;-2.240;2023-03-01T01:06:03;102303.47;;;14.05;81.95
77240;BME280;66258;53.170;-2.240;2023-03-01T01:08:30;102290.69;;;14.15;81.57
77240;BME280;66258;53.170;-2.240;2023-03-01T01:10:57;102293.88;;;14.20;81.19
77240;BME280;66258;53.170;-2.240;2023-03-01T01:13:24;102288.72;;;14.07;81.21
77240;BME280;66258;53.170;-2.240;2023-03-01T01:15:51;102289.00;;;14.04;81.63
77240;BME280;66258;53.170;-2.240;2023-03-01T01:18:18;102290.72;;;14.05;81.84
77240;BME280;66258;53.170;-2.240;2023-03-01T01:20:45;102289.00;;;14.04;82.26
77240;BME280;66258;53.170;-2.240;2023-03-01T01:23:13;102278.38;;;13.92;83.20
77240;BME280;66258;53.170;-2.240;2023-03-01T01:25:41;102272.94;;;14.01;83.31
77240;BME280;66258;53.170;-2.240;2023-03-01T01:28:07;102269.50;;;14.09;83.29
77240;BME280;66258;53.170;-2.240;2023-03-01T01:30:34;102279.41;;;14.10;83.88
77240;BME280;66258;53.170;-2.240;2023-03-01T01:33:02;102273.22;;;14.08;84.09
77240;BME280;66258;53.170;-2.240;2023-03-01T01:35:29;102271.22;;;14.20;83.88
77240;BME280;66258;53.170;-2.240;2023-03-01T01:37:56;102270.34;;;14.19;83.81
77240;BME280;66258;53.170;-2.240;2023-03-01T01:40:24;102262.47;;;14.26;83.51
77240;BME280;66258;53.170;-2.240;2023-03-01T01:42:51;102275.50;;;14.22;83.49
77240;BME280;66258;53.170;-2.240;2023-03-01T01:45:29;102267.22;;;14.33;83.32
77240;BME280;66258;53.170;-2.240;2023-03-01T01:47:59;102269.22;;;14.31;83.15
77240;BME280;66258;53.170;-2.240;2023-03-01T01:50:27;102260.91;;;14.33;82.88
77240;BME280;66258;53.170;-2.240;2023-03-01T01:52:54;102265.59;;;13.83;82.44
77240;BME280;66258;53.170;-2.240;2023-03-01T01:55:25;102252.88;;;14.12;82.24
77240;BME280;66258;53.170;-2.240;2023-03-01T01:57:55;102252.88;;;14.12;81.61
77240;BME280;66258;53.170;-2.240;2023-03-01T02:00:26;102248.72;;;14.08;80.65
77240;BME280;66258;53.170;-2.240;2023-03-01T02:02:56;102255.84;;;13.80;79.75
77240;BME280;66258;53.170;-2.240;2023-03-01T02:05:32;102242.94;;;13.72;80.34
77240;BME280;66258;53.170;-2.240;2023-03-01T02:08:02;102246.66;;;13.62;80.30
77240;BME280;66258;53.170;-2.240;2023-03-01T02:10:32;102244.38;;;13.67;80.11
77240;BME280;66258;53.170;-2.240;2023-03-01T02:13:00;102244.09;;;13.70;80.46
77240;BME280;66258;53.170;-2.240;2023-03-01T02:15:31;102241.34;;;13.60;81.64
77240;BME280;66258;53.170;-2.240;2023-03-01T02:17:59;102237.78;;;13.69;82.05
77240;BME280;66258;53.170;-2.240;2023-03-01T02:20:34;102236.47;;;13.64;82.81
77240;BME280;66258;53.170;-2.240;2023-03-01T02:23:03;102231.03;;;13.73;83.22
77240;BME280;66258;53.170;-2.240;2023-03-01T02:25:36;102212.72;;;13.85;82.69
77240;BME280;66258;53.170;-2.240;2023-03-01T02:30:39;102210.25;;;13.63;80.61
77240;BME280;66258;53.170;-2.240;2023-03-01T02:33:07;102207.34;;;13.35;81.18
77240;BME280;66258;53.170;-2.240;2023-03-01T02:35:37;102197.44;;;13.25;81.97
77240;BME280;66258;53.170;-2.240;2023-03-01T02:38:08;102198.34;;;13.04;83.34
77240;BME280;66258;53.170;-2.240;2023-03-01T02:40:37;102189.09;;;13.17;84.12
77240;BME280;66258;53.170;-2.240;2023-03-01T02:43:07;102196.31;;;13.27;83.96
77240;BME280;66258;53.170;-2.240;2023-03-01T02:45:35;102200.19;;;13.04;83.58
77240;BME280;66258;53.170;-2.240;2023-03-01T02:48:04;102197.63;;;13.43;82.22
77240;BME280;66258;53.170;-2.240;2023-03-01T02:50:49;102199.06;;;13.56;80.76
77240;BME280;66258;53.170;-2.240;2023-03-01T02:53:25;102187.06;;;13.68;79.46
77240;BME280;66258;53.170;-2.240;2023-03-01T02:55:55;102192.09;;;13.83;78.74
77240;BME280;66258;53.170;-2.240;2023-03-01T02:58:22;102189.50;;;14.00;77.92
77240;BME280;66258;53.170;-2.240;2023-03-01T03:00:49;102190.50;;;13.99;77.82
77240;BME280;66258;53.170;-2.240;2023-03-01T03:03:20;102192.66;;;14.05;77.34
77240;BME280;66258;53.170;-2.240;2023-03-01T03:05:47;102191.81;;;14.05;77.13
77240;BME280;66258;53.170;-2.240;2023-03-01T03:08:15;102199.53;;;14.09;76.85
77240;BME280;66258;53.170;-2.240;2023-03-01T03:10:42;102191.94;;;14.13;76.92
77240;BME280;66258;53.170;-2.240;2023-03-01T03:13:10;102194.81;;;14.12;76.80
77240;BME280;66258;53.170;-2.240;2023-03-01T03:15:38;102193.97;;;13.92;77.79
77240;BME280;66258;53.170;-2.240;2023-03-01T03:18:08;102194.09;;;13.90;78.83
77240;BME280;66258;53.170;-2.240;2023-03-01T03:20:39;102196.22;;;13.96;79.37
77240;BME280;66258;53.170;-2.240;2023-03-01T03:23:06;102195.22;;;13.97;79.39
77240;BME280;66258;53.170;-2.240;2023-03-01T03:25:33;102180.75;;;13.77;80.25
77240;BME280;66258;53.170;-2.240;2023-03-01T03:28:00;102188.94;;;13.97;80.09
77240;BME280;66258;53.170;-2.240;2023-03-01T03:30:29;102187.47;;;13.93;80.10
77240;BME280;66258;53.170;-2.240;2023-03-01T03:32:57;102184.63;;;13.94;80.58
77240;BME280;66258;53.170;-2.240;2023-03-01T03:35:28;102179.91;;;13.96;80.56
77240;BME280;66258;53.170;-2.240;2023-03-01T03:37:59;102181.03;;;13.94;80.61
77240;BME280;66258;53.170;-2.240;2023-03-01T03:40:27;102178.19;;;13.86;80.58
77240;BME280;66258;53.170;-2.240;2023-03-01T03:42:55;102177.16;;;13.77;81.16
77240;BME280;66258;53.170;-2.240;2023-03-01T03:45:22;102177.47;;;13.84;80.48
77240;BME280;66258;53.170;-2.240;2023-03-01T03:47:49;102167.97;;;13.39;80.07
77240;BME280;66258;53.170;-2.240;2023-03-01T03:50:17;102175.44;;;13.76;79.19
77240;BME280;66258;53.170;-2.240;2023-03-01T03:52:44;102172.16;;;13.72;78.91
77240;BME280;66258;53.170;-2.240;2023-03-01T03:55:13;102171.56;;;13.00;81.98
77240;BME280;66258;53.170;-2.240;2023-03-01T03:57:41;102168.00;;;13.49;82.34
77240;BME280;66258;53.170;-2.240;2023-03-01T04:00:10;102157.84;;;13.70;80.65
77240;BME280;66258;53.170;-2.240;2023-03-01T04:02:38;102152.66;;;13.77;81.16
77240;BME280;66258;53.170;-2.240;2023-03-01T04:05:07;102151.38;;;14.00;79.75
77240;BME280;66258;53.170;-2.240;2023-03-01T04:07:37;102151.66;;;13.97;79.86
77240;BME280;66258;53.170;-2.240;2023-03-01T04:10:06;102142.22;;;13.92;79.97
77240;BME280;66258;53.170;-2.240;2023-03-01T04:12:35;102145.25;;;13.89;80.23
77240;BME280;66258;53.170;-2.240;2023-03-01T04:15:04;102140.94;;;13.86;80.37
77240;BME280;66258;53.170;-2.240;2023-03-01T04:17:31;102142.06;;;13.84;80.88
77240;BME280;66258;53.170;-2.240;2023-03-01T04:19:58;102141.91;;;13.75;81.56
77240;BME280;66258;53.170;-2.240;2023-03-01T04:22:25;102135.06;;;13.71;82.08
77240;BME280;66258;53.170;-2.240;2023-03-01T04:24:52;102142.91;;;13.74;82.80
77240;BME280;66258;53.170;-2.240;2023-03-01T04:27:19;102142.22;;;13.72;83.11
77240;BME280;66258;53.170;-2.240;2023-03-01T04:29:48;102139.34;;;13.64;83.76
77240;BME280;66258;53.170;-2.240;2023-03-01T04:32:15;102142.34;;;13.81;83.98
77240;BME280;66258;53.170;-2.240;2023-03-01T04:34:42;102141.94;;;13.85;83.94
77240;BME280;66258;53.170;-2.240;2023-03-01T04:37:09;102140.22;;;13.84;84.44
77240;BME280;66258;53.170;-2.240;2023-03-01T04:39:36;102134.75;;;13.74;85.36
77240;BME280;66258;53.170;-2.240;2023-03-01T04:42:02;102134.75;;;13.74;86.11
77240;BME280;66258;53.170;-2.240;2023-03-01T04:44:29;102139.94;;;13.68;86.82
77240;BME280;66258;53.170;-2.240;2023-03-01T04:46:58;102130.47;;;13.62;87.34
77240;BME280;66258;53.170;-2.240;2023-03-01T04:49:25;102124.75;;;13.65;88.25
77240;BME280;66258;53.170;-2.240;2023-03-01T04:51:52;102123.59;;;13.49;89.14
77240;BME280;66258;53.170;-2.240;2023-03-01T04:54:19;102119.16;;;13.48;89.62
77240;BME280;66258;53.170;-2.240;2023-03-01T04:56:45;102120.13;;;13.37;90.55
77240;BME280;66258;53.170;-2.240;2023-03-01T04:59:12;102121.72;;;13.30;90.99
77240;BME280;66258;53.170;-2.240;2023-03-01T05:01:39;102124.00;;;13.25;91.48
77240;BME280;66258;53.170;-2.240;2023-03-01T05:04:08;102117.97;;;13.31;91.47
77240;BME280;66258;53.170;-2.240;2023-03-01T05:06:35;102122.72;;;13.29;91.94
77240;BME280;66258;53.170;-2.240;2023-03-01T05:09:02;102121.00;;;13.28;92.43
77240;BME280;66258;53.170;-2.240;2023-03-01T05:11:29;102124.44;;;13.30;92.88
77240;BME280;66258;53.170;-2.240;2023-03-01T05:13:56;102128.44;;;13.26;93.50
77240;BME280;66258;53.170;-2.240;2023-03-01T05:16:23;102129.16;;;13.28;93.92
77240;BME280;66258;53.170;-2.240;2023-03-01T05:18:50;102125.84;;;13.34;93.80
77240;BME280;66258;53.170;-2.240;2023-03-01T05:21:18;102120.84;;;13.39;94.12
77240;BME280;66258;53.170;-2.240;2023-03-01T05:23:45;102115.72;;;13.46;93.77
77240;BME280;66258;53.170;-2.240;2023-03-01T05:26:13;102118.56;;;13.44;93.64
77240;BME280;66258;53.170;-2.240;2023-03-01T05:29:00;102117.56;;;13.45;93.33
77240;BME280;66258;53.170;-2.240;2023-03-01T05:31:29;102116.72;;;13.54;92.94
77240;BME280;66258;53.170;-2.240;2023-03-01T05:33:55;102118.00;;;13.60;92.24
77240;BME280;66258;53.170;-2.240;2023-03-01T05:36:24;102121.44;;;13.62;92.17
77240;BME280;66258;53.170;-2.240;2023-03-01T05:38:50;102121.31;;;13.63;91.57
77240;BME280;66258;53.170;-2.240;2023-03-01T05:41:17;102117.00;;;13.61;91.78
77240;BME280;66258;53.170;-2.240;2023-03-01T05:43:44;102122.72;;;13.58;92.24
77240;BME280;66258;53.170;-2.240;2023-03-01T05:46:11;102116.84;;;13.53;92.56
77240;BME280;66258;53.170;-2.240;2023-03-01T05:48:37;102120.44;;;13.53;92.48
77240;BME280;66258;53.170;-2.240;2023-03-01T05:51:04;102114.56;;;13.38;92.87
77240;BME280;66258;53.170;-2.240;2023-03-01T05:53:32;102114.09;;;13.33;93.05
77240;BME280;66258;53.170;-2.240;2023-03-01T05:55:59;102117.13;;;13.40;93.02
77240;BME280;66258;53.170;-2.240;2023-03-01T05:58:29;102128.31;;;13.47;92.82
77240;BME280;66258;53.170;-2.240;2023-03-01T06:00:56;102121.72;;;13.39;92.96
77240;BME280;66258;53.170;-2.240;2023-03-01T06:03:23;102120.03;;;13.48;92.38
77240;BME280;66258;53.170;-2.240;2023-03-01T06:05:55;102119.88;;;13.50;92.03
77240;BME280;66258;53.170;-2.240;2023-03-01T06:08:22;102121.28;;;13.54;91.92
77240;BME280;66258;53.170;-2.240;2023-03-01T06:10:51;102120.84;;;13.39;92.74
77240;BME280;66258;53.170;-2.240;2023-03-01T06:13:18;102118.13;;;13.39;93.22
77240;BME280;66258;53.170;-2.240;2023-03-01T06:15:45;102118.69;;;13.33;93.50
77240;BME280;66258;53.170;-2.240;2023-03-01T06:18:12;102124.69;;;13.17;94.04
77240;BME280;66258;53.170;-2.240;2023-03-01T06:20:39;102121.56;;;13.22;94.46
77240;BME280;66258;53.170;-2.240;2023-03-01T06:23:08;102115.25;;;13.31;94.50
77240;BME280;66258;53.170;-2.240;2023-03-01T06:25:37;102124.00;;;13.25;94.48
77240;BME280;66258;53.170;-2.240;2023-03-01T06:28:06;102132.16;;;13.25;94.78
77240;BME280;66258;53.170;-2.240;2023-03-01T06:30:33;102124.41;;;13.20;95.07
77240;BME280;66258;53.170;-2.240;2023-03-01T06:32:59;102125.34;;;13.09;95.30
77240;BME280;66258;53.170;-2.240;2023-03-01T06:35:26;102122.94;;;13.06;95.79
77240;BME280;66258;53.170;-2.240;2023-03-01T06:37:53;102122.06;;;13.06;96.33
77240;BME280;66258;53.170;-2.240;2023-03-01T06:40:20;102130.25;;;13.16;96.56
77240;BME280;66258;53.170;-2.240;2023-03-01T06:42:49;102135.44;;;13.19;96.63
77240;BME280;66258;53.170;-2.240;2023-03-01T06:45:19;102132.22;;;13.14;96.96
77240;BME280;66258;53.170;-2.240;2023-03-01T06:47:47;102131.97;;;13.17;97.49
77240;BME280;66258;53.170;-2.240;2023-03-01T06:50:14;102128.84;;;13.21;96.92
77240;BME280;66258;53.170;-2.240;2023-03-01T06:52:41;102131.16;;;13.26;96.02
77240;BME280;66258;53.170;-2.240;2023-03-01T06:55:08;102133.88;;;13.26;95.96
77240;BME280;66258;53.170;-2.240;2023-03-01T06:57:35;102132.72;;;13.19;96.18
77240;BME280;66258;53.170;-2.240;2023-03-01T07:00:02;102131.13;;;13.16;97.31
77240;BME280;66258;53.170;-2.240;2023-03-01T07:02:31;102135.88;;;13.24;96.72
77240;BME280;66258;53.170;-2.240;2023-03-01T07:04:57;102129.00;;;13.20;96.87
77240;BME280;66258;53.170;-2.240;2023-03-01T07:07:24;102127.72;;;13.24;96.93
77240;BME280;66258;53.170;-2.240;2023-03-01T07:09:51;102137.59;;;13.25;96.24
77240;BME280;66258;53.170;-2.240;2023-03-01T07:12:18;102122.81;;;13.18;97.09
77240;BME280;66258;53.170;-2.240;2023-03-01T07:14:44;102124.06;;;13.14;96.90
77240;BME280;66258;53.170;-2.240;2023-03-01T07:17:11;102125.34;;;13.09;96.66
77240;BME280;66258;53.170;-2.240;2023-03-01T07:19:39;102116.19;;;13.11;96.13
77240;BME280;66258;53.170;-2.240;2023-03-01T07:22:06;102116.19;;;13.11;96.40
77240;BME280;66258;53.170;-2.240;2023-03-01T07:24:33;102118.22;;;13.08;96.49
77240;BME280;66258;53.170;-2.240;2023-03-01T07:27:00;102123.19;;;13.03;97.17
77240;BME280;66258;53.170;-2.240;2023-03-01T07:29:26;102133.22;;;13.13;96.69
77240;BME280;66258;53.170;-2.240;2023-03-01T07:31:53;102124.81;;;13.16;97.26
77240;BME280;66258;53.170;-2.240;2023-03-01T07:34:20;102132.13;;;13.15;97.14
77240;BME280;66258;53.170;-2.240;2023-03-01T07:36:48;102135.66;;;13.06;96.86
77240;BME280;66258;53.170;-2.240;2023-03-01T07:39:15;102136.81;;;13.13;96.87
77240;BME280;66258;53.170;-2.240;2023-03-01T07:41:44;102139.03;;;13.29;96.31
77240;BME280;66258;53.170;-2.240;2023-03-01T07:44:10;102132.75;;;13.38;95.86
77240;BME280;66258;53.170;-2.240;2023-03-01T07:46:37;102133.59;;;13.29;96.20
77240;BME280;66258;53.170;-2.240;2023-03-01T07:49:04;102134.31;;;13.40;95.77
77240;BME280;66258;53.170;-2.240;2023-03-01T07:51:31;102136.75;;;13.53;95.06
77240;BME280;66258;53.170;-2.240;2023-03-01T07:53:59;102134.06;;;13.63;94.44
77240;BME280;66258;53.170;-2.240;2023-03-01T07:56:26;102136.19;;;13.59;94.15
77240;BME280;66258;53.170;-2.240;2023-03-01T07:58:53;102138.22;;;13.67;93.77
77240;BME280;66258;53.170;-2.240;2023-03-01T08:01:20;102135.47;;;13.76;93.27
77240;BME280;66258;53.170;-2.240;2023-03-01T08:03:47;102140.22;;;13.84;92.39
77240;BME280;66258;53.170;-2.240;2023-03-01T08:06:16;102133.47;;;13.98;91.42
77240;BME280;66258;53.170;-2.240;2023-03-01T08:08:44;102138.47;;;14.02;90.81
77240;BME280;66258;53.170;-2.240;2023-03-01T08:11:14;102140.50;;;13.91;91.25
77240;BME280;66258;53.170;-2.240;2023-03-01T08:13:41;102142.66;;;13.87;92.28
77240;BME280;66258;53.170;-2.240;2023-03-01T08:16:11;102149.22;;;13.94;92.57
77240;BME280;66258;53.170;-2.240;2023-03-01T08:18:39;102149.94;;;13.96;92.93
77240;BME280;66258;53.170;-2.240;2023-03-01T08:21:07;102144.34;;;14.07;92.41
77240;BME280;66258;53.170;-2.240;2023-03-01T08:23:35;102147.22;;;14.06;93.35
77240;BME280;66258;53.170;-2.240;2023-03-01T08:26:06;102148.19;;;14.15;93.17
77240;BME280;66258;53.170;-2.240;2023-03-01T08:28:35;102141.34;;;14.10;93.63
77240;BME280;66258;53.170;-2.240;2023-03-01T08:31:03;102133.72;;;14.14;94.62
77240;BME280;66258;53.170;-2.240;2023-03-01T08:33:39;102135.28;;;14.26;94.51
77240;BME280;66258;53.170;-2.240;2023-03-01T08:36:06;102147.00;;;14.36;94.33
77240;BME280;66258;53.170;-2.240;2023-03-01T08:38:33;102137.72;;;14.29;94.31
77240;BME280;66258;53.170;-2.240;2023-03-01T08:41:00;102134.28;;;14.27;93.55
77240;BME280;66258;53.170;-2.240;2023-03-01T08:43:28;102135.03;;;14.00;93.17
77240;BME280;66258;53.170;-2.240;2023-03-01T08:45:56;102134.72;;;14.23;93.53
77240;BME280;66258;53.170;-2.240;2023-03-01T08:48:23;102139.00;;;14.25;93.03
77240;BME280;66258;53.170;-2.240;2023-03-01T08:50:50;102135.00;;;14.20;92.87
77240;BME280;66258;53.170;-2.240;2023-03-01T08:53:17;102139.00;;;14.16;93.02
77240;BME280;66258;53.170;-2.240;2023-03-01T08:55:44;102139.28;;;14.32;93.00
77240;BME280;66258;53.170;-2.240;2023-03-01T08:58:10;102136.66;;;14.40;93.14
77240;BME280;66258;53.170;-2.240;2023-03-01T09:00:37;102142.00;;;14.41;92.58
77240;BME280;66258;53.170;-2.240;2023-03-01T09:03:06;102137.28;;;14.34;92.36
77240;BME280;66258;53.170;-2.240;2023-03-01T09:05:33;102133.41;;;14.46;92.06
77240;BME280;66258;53.170;-2.240;2023-03-01T09:08:00;102141.28;;;14.49;91.32
77240;BME280;66258;53.170;-2.240;2023-03-01T09:10:27;102141.84;;;14.53;90.62
77240;BME280;66258;53.170;-2.240;2023-03-01T09:12:54;102143.25;;;14.57;90.64
77240;BME280;66258;53.170;-2.240;2023-03-01T09:15:21;102136.97;;;14.47;90.36
77240;BME280;66258;53.170;-2.240;2023-03-01T09:17:48;102146.97;;;14.56;90.00
77240;BME280;66258;53.170;-2.240;2023-03-01T09:20:16;102136.09;;;14.36;89.96
77240;BME280;66258;53.170;-2.240;2023-03-01T09:22:43;102140.13;;;14.52;89.70
77240;BME280;66258;53.170;-2.240;2023-03-01T09:25:10;102148.09;;;14.72;89.47
77240;BME280;66258;53.170;-2.240;2023-03-01T09:27:36;102150.03;;;14.90;89.55
77240;BME280;66258;53.170;-2.240;2023-03-01T09:30:04;102136.53;;;14.88;90.27
77240;BME280;66258;53.170;-2.240;2023-03-01T09:32:31;102146.19;;;15.10;91.26
77240;BME280;66258;53.170;-2.240;2023-03-01T09:34:58;102141.31;;;15.59;90.16
77240;BME280;66258;53.170;-2.240;2023-03-01T09:37:26;102144.19;;;15.57;86.49
77240;BME280;66258;53.170;-2.240;2023-03-01T09:39:53;102143.03;;;15.32;85.23
77240;BME280;66258;53.170;-2.240;2023-03-01T09:42:21;102142.88;;;15.06;85.16
77240;BME280;66258;53.170;-2.240;2023-03-01T09:44:51;102140.03;;;15.26;83.73
77240;BME280;66258;53.170;-2.240;2023-03-01T09:47:19;102133.53;;;15.54;82.28
77240;BME280;66258;53.170;-2.240;2023-03-01T09:49:54;102129.44;;;15.68;82.00
77240;BME280;66258;53.170;-2.240;2023-03-01T09:52:28;102135.44;;;15.89;81.43
77240;BME280;66258;53.170;-2.240;2023-03-01T09:54:57;102129.66;;;15.92;80.59
77240;BME280;66258;53.170;-2.240;2023-03-01T09:57:30;102123.78;;;15.87;79.51
77240;BME280;66258;53.170;-2.240;2023-03-01T10:00:16;102132.16;;;15.86;79.17
77240;BME280;66258;53.170;-2.240;2023-03-01T10:02:49;102116.06;;;15.47;78.52
77240;BME280;66258;53.170;-2.240;2023-03-01T10:05:33;102106.59;;;15.41;80.27
77240;BME280;66258;53.170;-2.240;2023-03-01T10:08:36;102100.56;;;15.65;79.64
77240;BME280;66258;53.170;-2.240;2023-03-01T10:11:19;102097.66;;;15.49;81.04
77240;BME280;66258;53.170;-2.240;2023-03-01T10:13:54;102085.94;;;15.21;81.38
77240;BME280;66258;53.170;-2.240;2023-03-01T10:16:27;102082.53;;;15.72;81.43
77240;BME280;66258;53.170;-2.240;2023-03-01T10:18:59;102082.00;;;16.12;79.06
77240;BME280;66258;53.170;-2.240;2023-03-01T10:21:27;102078.34;;;16.30;77.96
77240;BME280;66258;53.170;-2.240;2023-03-01T10:23:59;102081.16;;;16.72;77.28
77240;BME280;66258;53.170;-2.240;2023-03-01T10:26:44;102076.94;;;16.86;76.15
77240;BME280;66258;53.170;-2.240;2023-03-01T10:29:14;102075.28;;;16.33;76.32
77240;BME280;66258;53.170;-2.240;2023-03-01T10:31:43;102070.84;;;17.00;76.52
77240;BME280;66258;53.170;-2.240;2023-03-01T10:34:15;102074.03;;;17.70;73.49
77240;BME280;66258;53.170;-2.240;2023-03-01T10:36:43;102070.78;;;17.74;71.10
77240;BME280;66258;53.170;-2.240;2023-03-01T10:39:17;102063.50;;;17.00;69.20
77240;BME280;66258;53.170;-2.240;2023-03-01T10:41:54;102064.22;;;17.27;69.39
77240;BME280;66258;53.170;-2.240;2023-03-01T10:44:44;102062.44;;;16.93;70.20
77240;BME280;66258;53.170;-2.240;2023-03-01T10:47:15;102065.00;;;16.95;70.27
77240;BME280;66258;53.170;-2.240;2023-03-01T10:49:57;102060.75;;;17.00;70.15
77240;BME280;66258;53.170;-2.240;2023-03-01T10:52:27;102063.25;;;17.76;69.05
77240;BME280;66258;53.170;-2.240;2023-03-01T10:54:58;102057.72;;;18.17;68.61
77240;BME280;66258;53.170;-2.240;2023-03-01T10:57:31;102059.66;;;18.55;66.65
77240;BME280;66258;53.170;-2.240;2023-03-01T11:00:21;102050.53;;;18.24;63.55
77240;BME280;66258;53.170;-2.240;2023-03-01T11:02:49;102048.19;;;17.72;63.19
77240;BME280;66258;53.170;-2.240;2023-03-01T11:05:20;102047.19;;;17.65;63.36
77240;BME280;66258;53.170;-2.240;2023-03-01T11:07:49;102042.16;;;17.20;64.87
77240;BME280;66258;53.170;-2.240;2023-03-01T11:10:20;102036.69;;;17.36;64.81
77240;BME280;66258;53.170;-2.240;2023-03-01T11:12:47;102031.69;;;17.15;65.29
77240;BME280;66258;53.170;-2.240;2023-03-01T11:15:24;102021.44;;;17.17;66.28
77240;BME280;66258;53.170;-2.240;2023-03-01T11:17:51;102019.06;;;16.64;63.83
77240;BME280;66258;53.170;-2.240;2023-03-01T11:20:26;102014.56;;;16.55;64.09
77240;BME280;66258;53.170;-2.240;2023-03-01T11:22:59;102026.13;;;15.63;64.70
77240;BME280;66258;53.170;-2.240;2023-03-01T11:25:32;102015.69;;;15.05;71.35
77240;BME280;66258;53.170;-2.240;2023-03-01T11:28:03;102015.47;;;15.17;74.05
77240;BME280;66258;53.170;-2.240;2023-03-01T11:30:34;102028.97;;;15.36;76.62
77240;BME280;66258;53.170;-2.240;2023-03-01T11:33:11;102020.84;;;15.62;78.29
77240;BME280;66258;53.170;-2.240;2023-03-01T11:35:42;102024.78;;;16.11;77.95
77240;BME280;66258;53.170;-2.240;2023-03-01T11:38:20;102023.47;;;16.57;78.98
77240;BME280;66258;53.170;-2.240;2023-03-01T11:40:52;102017.66;;;17.02;77.41
77240;BME280;66258;53.170;-2.240;2023-03-01T11:43:27;102022.50;;;17.41;75.21
77240;BME280;66258;53.170;-2.240;2023-03-01T11:46:26;102017.13;;;17.07;71.44
77240;BME280;66258;53.170;-2.240;2023-03-01T11:49:09;102014.06;;;17.02;70.80
77240;BME280;66258;53.170;-2.240;2023-03-01T11:51:49;101994.16;;;16.33;70.08
77240;BME280;66258;53.170;-2.240;2023-03-01T11:54:30;101980.47;;;16.67;68.33
77240;BME280;66258;53.170;-2.240;2023-03-01T11:57:09;101985.25;;;15.97;70.17
77240;BME280;66258;53.170;-2.240;2023-03-01T12:00:02;102004.28;;;16.49;70.66
77240;BME280;66258;53.170;-2.240;2023-03-01T12:03:15;101986.22;;;16.22;68.85
77240;BME280;66258;53.170;-2.240;2023-03-01T12:05:58;101988.03;;;16.39;68.05
77240;BME280;66258;53.170;-2.240;2023-03-01T12:08:35;101981.78;;;16.21;68.87
77240;BME280;66258;53.170;-2.240;2023-03-01T12:11:16;101970.59;;;15.72;71.71
77240;BME280;66258;53.170;-2.240;2023-03-01T12:17:09;101969.25;;;15.76;68.53
77240;BME280;66258;53.170;-2.240;2023-03-01T12:19:53;101970.19;;;16.19;66.07
77240;BME280;66258;53.170;-2.240;2023-03-01T12:22:30;101971.13;;;17.10;64.56
77240;BME280;66258;53.170;-2.240;2023-03-01T12:25:22;101969.19;;;16.70;65.55
77240;BME280;66258;53.170;-2.240;2023-03-01T12:28:07;101971.00;;;17.20;63.91
77240;BME280;66258;53.170;-2.240;2023-03-01T12:30:47;101963.47;;;17.22;63.77
77240;BME280;66258;53.170;-2.240;2023-03-01T12:33:27;101949.09;;;17.04;64.13
77240;BME280;66258;53.170;-2.240;2023-03-01T12:36:12;101946.88;;;17.15;63.93
77240;BME280;66258;53.170;-2.240;2023-03-01T12:38:49;101946.00;;;16.82;64.94
77240;BME280;66258;53.170;-2.240;2023-03-01T12:41:29;101936.78;;;17.16;63.03
77240;BME280;66258;53.170;-2.240;2023-03-01T12:44:08;101936.03;;;16.73;64.00
77240;BME280;66258;53.170;-2.240;2023-03-01T12:46:47;101924.94;;;16.91;63.98
77240;BME280;66258;53.170;-2.240;2023-03-01T12:49:20;101931.81;;;17.36;65.90
77240;BME280;66258;53.170;-2.240;2023-03-01T12:51:53;101912.81;;;17.18;62.90
77240;BME280;66258;53.170;-2.240;2023-03-01T12:54:27;101926.50;;;18.14;60.43
77240;BME280;66258;53.170;-2.240;2023-03-01T12:56:55;101935.38;;;17.77;58.40
77240;BME280;66258;53.170;-2.240;2023-03-01T12:59:27;101930.94;;;17.51;59.29
77240;BME280;66258;53.170;-2.240;2023-03-01T13:02:04;101925.13;;;17.30;60.33